Track Дементьев Павел

Time Latitude Longitude Accuracy (66% radius in meters) Altitude (meters) Speed (km/hour) Bearing (degrees) Battery (%) GPS flag
08:19:17 55.921015 37.361851 8 184 1.3698463439941 51.319080352783 59 1 delete
08:19:11 55.920980 37.361777 6 180 1.1747926473618 33.531772613525 59 1 delete
08:19:08 55.920939 37.361730 6 179 1.5545679330826 24.077020645142 59 1 delete
08:19:04 55.920899 37.361645 6 177 1.6029286384583 109.37596130371 59 1 delete
08:18:59 55.920884 37.361542 6 178 3.8411958217621 32.660148620605 59 1 delete
08:18:57 55.920826 37.361472 6 177 4.1073279380798 35.98681640625 59 1 delete
08:18:55 55.920775 37.361398 6 175 4.1314725875854 38.669258117676 59 1 delete
08:18:53 55.920720 37.361313 6 173 4.1623854637146 38.208358764648 59 1 delete
08:18:51 55.920654 37.361217 6 175 3.8602442741394 39.722290039062 59 1 delete
08:18:50 55.920620 37.361166 6 177 3.900951385498 38.49898147583 59 1 delete
08:18:48 55.920555 37.361084 6 177 3.6872036457062 35.363933563232 59 1 delete
08:18:46 55.920491 37.361017 6 177 4.0415863990784 35.0576171875 59 1 delete
08:18:44 55.920434 37.360949 6 178 4.0651612281799 36.866470336914 59 1 delete
08:18:42 55.920382 37.360869 6 179 4.0414371490479 53.118293762207 59 1 delete
08:18:40 55.920343 37.360784 6 178 3.9441072940826 53.342960357666 59 1 delete
08:18:38 55.920299 37.360680 6 174 3.9126794338226 40.281215667725 59 1 delete
08:18:36 55.920239 37.360600 6 171 4.1398024559021 34.868766784668 59 1 delete
08:18:34 55.920179 37.360534 6 168 4.1384057998657 34.7783203125 59 1 delete
08:18:32 55.920121 37.360468 6 167 4.3510975837708 37.140724182129 59 1 delete
08:18:30 55.920054 37.360380 6 168 4.2434391975403 38.317142486572 59 1 delete
08:18:28 55.919986 37.360285 6 170 4.3562846183777 35.161403656006 59 1 delete
08:18:27 55.919947 37.360236 6 167 4.7430906295776 32.039920806885 59 1 delete
08:18:26 55.919904 37.360190 6 167 4.5510420799255 31.061500549316 59 1 delete
08:18:25 55.919864 37.360147 6 169 4.4202899932861 32.080150604248 59 1 delete
08:18:23 55.919790 37.360070 6 169 4.1245431900024 33.2380027771 59 1 delete
08:18:21 55.919731 37.360008 6 172 3.7787609100342 37.152667999268 59 1 delete
08:18:19 55.919668 37.359940 6 170 3.7688248157501 39.059906005859 59 1 delete
08:18:17 55.919608 37.359865 6 170 3.8356640338898 40.439186096191 59 1 delete
08:18:15 55.919551 37.359789 6 170 3.5068817138672 41.831787109375 59 1 delete
08:18:13 55.919491 37.359709 6 167 3.8288054466248 38.984252929688 59 1 delete
08:18:11 55.919431 37.359648 6 166 3.9662010669708 38.107318878174 59 1 delete
08:18:09 55.919365 37.359577 6 169 4.1456704139709 40.522521972656 59 1 delete
08:18:07 55.919295 37.359495 6 169 4.1002974510193 43.131610870361 59 1 delete
08:18:05 55.919232 37.359403 6 168 4.3392672538757 47.864440917969 59 1 delete
08:18:04 55.919197 37.359341 6 167 4.2616920471191 49.882335662842 59 1 delete
08:18:02 55.919137 37.359223 6 169 4.3065085411072 51.75617980957 59 1 delete
08:18:00 55.919084 37.359113 6 172 4.7881379127502 54.48263168335 59 1 delete
08:17:59 55.919053 37.359041 6 170 5.129988193512 55.434833526611 59 1 delete
08:17:57 55.918995 37.358905 6 170 5.054594039917 57.003005981445 59 1 delete
08:17:55 55.918941 37.358770 6 171 4.7362632751465 58.665096282959 59 1 delete
08:17:53 55.918891 37.358650 6 169 4.3855543136597 58.157863616943 59 1 delete
08:17:51 55.918844 37.358520 6 168 4.0213227272034 60.751983642578 59 1 delete
08:17:49 55.918804 37.358391 6 167 3.6304795742035 58.552791595459 59 1 delete
08:17:47 55.918763 37.358290 6 168 3.2370297908783 54.529075622559 59 1 delete
08:17:45 55.918729 37.358203 6 173 3.4468207359314 52.101150512695 59 1 delete
08:17:43 55.918691 37.358097 6 170 3.298798084259 52.315532684326 59 1 delete
08:17:41 55.918656 37.358015 6 170 3.3889725208282 50.721450805664 59 1 delete
08:17:39 55.918619 37.357933 6 168 3.3252856731415 52.339965820312 59 1 delete
08:17:37 55.918575 37.357839 6 169 2.9917376041412 50.497608184814 59 1 delete
08:17:35 55.918533 37.357766 6 170 3.1426200866699 50.370712280273 59 1 delete